Time;durP1;ratioP1;P1;durP2;ratioP2;P2;SDS_P1;SDS_P2;PMS_P1;PMS_P2;Temp;Humidity;BMP_temperature;BMP_pressure;BME280_temperature;BME280_humidity;BME280_pressure;Samples;Min_cycle;Max_cycle;Signal;HPM_P1;HPM_P2
2021/07/21 00:00:33;;;;;;;16.60;12.17;;;18.40;98.30;;;;;;5102399;23;20429;-84
2021/07/21 00:02:37;;;;;;;13.27;11.60;;;18.40;98.30;;;;;;5102614;23;20403;-84
2021/07/21 00:04:40;;;;;;;16.50;12.03;;;18.30;98.30;;;;;;5102571;23;20446;-84
2021/07/21 00:06:45;;;;;;;15.83;11.27;;;18.30;98.30;;;;;;5101574;23;20447;-84
2021/07/21 00:08:48;;;;;;;19.63;12.13;;;18.30;98.30;;;;;;5101634;23;20458;-84
2021/07/21 00:13:26;;;;;;;15.73;12.20;;;18.30;98.30;;;;;;5093874;23;20493;-84
2021/07/21 00:13:31;;;;;;;16.00;11.30;;;18.40;98.30;;;;;;5102479;23;20808;-84
2021/07/21 00:15:37;;;;;;;16.30;11.97;;;18.30;98.30;;;;;;5101660;23;20461;-83
2021/07/21 00:17:41;;;;;;;16.73;12.50;;;18.40;98.30;;;;;;5102355;23;20419;-84
2021/07/21 00:22:06;;;;;;;13.77;11.40;;;18.40;98.30;;;;;;5101867;23;20408;-86
2021/07/21 00:24:09;;;;;;;19.93;12.90;;;18.30;98.30;;;;;;5100868;23;20446;-86
2021/07/21 00:26:12;;;;;;;16.37;11.80;;;18.30;98.30;;;;;;5101048;23;20438;-86
2021/07/21 00:28:15;;;;;;;15.90;11.30;;;18.30;98.30;;;;;;5101432;23;20433;-86
2021/07/21 00:30:20;;;;;;;17.73;12.27;;;18.30;98.30;;;;;;5093392;23;20441;-86
2021/07/21 00:32:23;;;;;;;18.70;13.17;;;18.30;98.30;;;;;;5093672;23;20430;-85
2021/07/21 00:34:26;;;;;;;15.77;12.73;;;18.30;98.30;;;;;;5101235;23;20465;-85
2021/07/21 00:36:29;;;;;;;18.33;12.30;;;18.30;98.30;;;;;;5101415;23;20446;-86
2021/07/21 00:38:33;;;;;;;21.30;13.57;;;18.20;98.30;;;;;;5093209;23;20431;-86
2021/07/21 00:40:36;;;;;;;22.90;14.10;;;18.20;98.30;;;;;;5093192;23;20430;-85
2021/07/21 00:42:39;;;;;;;19.43;13.20;;;18.30;98.30;;;;;;5094067;23;20437;-86
2021/07/21 00:44:42;;;;;;;18.93;11.67;;;18.30;98.30;;;;;;5100883;23;20990;-84
2021/07/21 00:46:45;;;;;;;17.10;13.30;;;18.30;98.30;;;;;;5101390;23;20534;-87
2021/07/21 00:48:48;;;;;;;17.73;11.90;;;18.30;98.30;;;;;;5101185;23;20458;-86
2021/07/21 00:50:55;;;;;;;16.30;12.03;;;18.30;98.30;;;;;;5092937;23;20442;-86
2021/07/21 00:52:58;;;;;;;18.60;12.80;;;18.30;98.30;;;;;;5101590;23;20425;-87
2021/07/21 00:55:04;;;;;;;16.80;11.70;;;18.30;98.30;;;;;;5093471;23;20435;-83
2021/07/21 00:57:07;;;;;;;15.30;10.20;;;18.20;98.30;;;;;;5093619;23;21048;-87
2021/07/21 00:59:10;;;;;;;13.70;10.27;;;18.30;98.30;;;;;;5097377;23;20506;-86
2021/07/21 01:01:13;;;;;;;14.93;9.70;;;18.30;98.30;;;;;;5101444;23;20968;-84
2021/07/21 01:03:16;;;;;;;13.30;9.87;;;18.30;98.30;;;;;;5093179;23;20431;-86
2021/07/21 01:05:23;;;;;;;14.03;9.80;;;18.30;98.30;;;;;;5093088;23;20458;-85
2021/07/21 01:07:27;;;;;;;17.63;9.40;;;18.30;98.30;;;;;;5101010;23;20956;-86
2021/07/21 01:09:30;;;;;;;13.43;8.67;;;18.20;98.30;;;;;;5101450;23;20517;-85
2021/07/21 01:11:43;;;;;;;11.87;9.00;;;18.20;98.30;;;;;;5100727;23;20434;-87
2021/07/21 01:13:52;;;;;;;14.03;10.07;;;18.30;98.30;;;;;;5100712;23;20430;-86
2021/07/21 01:16:00;;;;;;;11.57;9.10;;;18.40;98.30;;;;;;5100952;23;21002;-86
2021/07/21 01:18:08;;;;;;;13.00;10.27;;;18.40;98.30;;;;;;5101166;23;20411;-86
2021/07/21 01:21:02;;;;;;;12.83;10.10;;;18.40;98.30;;;;;;5093354;23;20419;-85
2021/07/21 01:23:13;;;;;;;12.23;10.50;;;18.40;98.30;;;;;;5101458;23;20402;-85
2021/07/21 01:25:18;;;;;;;13.90;9.47;;;18.20;98.30;;;;;;5100737;23;20453;-87
2021/07/21 01:27:27;;;;;;;13.60;10.40;;;18.20;98.30;;;;;;5093081;23;20504;-85
2021/07/21 01:29:30;;;;;;;15.23;9.73;;;18.20;98.30;;;;;;5100383;23;20505;-86
2021/07/21 01:31:43;;;;;;;14.37;9.83;;;18.20;98.30;;;;;;5101019;23;20455;-88
2021/07/21 01:33:47;;;;;;;14.30;9.67;;;18.20;98.30;;;;;;5092583;23;20502;-86
2021/07/21 01:35:56;;;;;;;13.13;9.50;;;18.20;98.30;;;;;;5100955;23;20427;-86
2021/07/21 01:38:02;;;;;;;14.43;9.87;;;18.30;98.30;;;;;;5100715;23;20884;-84
2021/07/21 01:40:07;;;;;;;13.40;9.30;;;18.40;98.30;;;;;;5100652;23;20446;-86
2021/07/21 01:42:17;;;;;;;11.90;8.93;;;18.40;98.30;;;;;;5101159;23;20417;-86
2021/07/21 01:44:26;;;;;;;15.77;10.20;;;18.50;98.30;;;;;;5092817;23;21222;-86
2021/07/21 01:46:31;;;;;;;11.13;8.80;;;18.50;98.30;;;;;;5101415;23;20468;-86
2021/07/21 01:48:37;;;;;;;13.20;9.17;;;18.50;98.30;;;;;;5091870;23;20506;-86
2021/07/21 01:50:42;;;;;;;12.10;8.80;;;18.40;98.30;;;;;;5101132;23;20426;-85
2021/07/21 01:52:48;;;;;;;16.47;9.70;;;18.40;98.30;;;;;;5100671;23;20434;-87
2021/07/21 01:54:53;;;;;;;12.53;9.87;;;18.30;98.30;;;;;;5100672;23;20425;-84
2021/07/21 01:56:58;;;;;;;12.70;9.10;;;18.30;98.30;;;;;;5101784;23;20932;-86
2021/07/21 01:59:02;;;;;;;12.47;9.37;;;18.40;98.30;;;;;;5094481;23;20575;-85
2021/07/21 02:01:08;;;;;;;12.67;9.90;;;18.40;98.30;;;;;;5094988;23;20430;-85
2021/07/21 02:03:12;;;;;;;14.80;9.67;;;18.30;98.30;;;;;;5110703;23;20482;-85
2021/07/21 02:05:17;;;;;;;19.07;11.67;;;18.10;98.30;;;;;;5102525;23;20455;-86
2021/07/21 02:07:21;;;;;;;14.77;11.23;;;18.10;98.30;;;;;;5092969;23;20522;-86
2021/07/21 02:09:26;;;;;;;17.03;11.13;;;18.00;98.30;;;;;;5100255;23;20499;-86
2021/07/21 02:11:30;;;;;;;14.80;11.10;;;18.10;98.30;;;;;;5092734;23;20511;-87
2021/07/21 02:13:34;;;;;;;12.77;10.40;;;18.00;98.30;;;;;;5100780;23;20431;-86
2021/07/21 02:15:37;;;;;;;15.40;10.83;;;18.00;98.30;;;;;;5101235;23;20426;-86
2021/07/21 02:17:42;;;;;;;14.73;10.00;;;18.00;98.30;;;;;;5092580;23;20430;-86
2021/07/21 02:19:46;;;;;;;16.90;11.27;;;18.00;98.30;;;;;;5091586;23;20427;-86
2021/07/21 02:21:49;;;;;;;15.50;11.23;;;18.00;98.30;;;;;;5092033;23;20427;-87
2021/07/21 02:23:54;;;;;;;14.80;11.10;;;17.90;98.30;;;;;;5100596;23;20427;-84
2021/07/21 02:26:00;;;;;;;19.20;12.03;;;17.90;98.30;;;;;;5092101;23;20461;-85
2021/07/21 02:28:03;;;;;;;17.63;11.00;;;17.90;98.30;;;;;;5100772;23;20973;-86
2021/07/21 02:30:08;;;;;;;16.73;11.10;;;17.90;98.30;;;;;;5092290;23;20431;-86
2021/07/21 02:32:15;;;;;;;16.40;11.37;;;17.90;98.30;;;;;;5101005;23;20411;-85
2021/07/21 02:34:20;;;;;;;18.33;13.03;;;17.90;98.30;;;;;;5092697;23;20411;-87
2021/07/21 02:36:24;;;;;;;14.13;10.70;;;17.90;98.30;;;;;;5092080;23;20451;-87
2021/07/21 02:38:27;;;;;;;21.10;12.10;;;17.90;98.30;;;;;;5100337;23;20431;-87
2021/07/21 02:40:30;;;;;;;16.87;11.07;;;17.90;98.30;;;;;;5099903;23;20427;-86
2021/07/21 02:42:33;;;;;;;21.77;14.90;;;17.90;98.30;;;;;;5091340;23;20437;-86
2021/07/21 02:44:36;;;;;;;19.50;13.70;;;17.90;98.30;;;;;;5099739;23;20431;-85
2021/07/21 02:46:40;;;;;;;14.90;11.60;;;17.90;98.30;;;;;;5091445;23;20923;-82
2021/07/21 02:48:45;;;;;;;18.83;12.50;;;17.90;98.30;;;;;;5103307;23;20497;-82
2021/07/21 02:50:54;;;;;;;16.37;12.27;;;17.80;98.30;;;;;;5103475;23;20411;-82
2021/07/21 02:53:02;;;;;;;23.93;13.30;;;17.80;98.30;;;;;;5103430;23;20432;-82
2021/07/21 02:55:12;;;;;;;26.80;13.53;;;17.80;98.30;;;;;;5103526;23;20426;-82
2021/07/21 02:57:21;;;;;;;17.03;11.27;;;17.80;98.30;;;;;;5105056;23;20453;-82
2021/07/21 02:59:36;;;;;;;23.53;13.33;;;17.80;98.30;;;;;;5103604;23;20424;-81
2021/07/21 03:01:47;;;;;;;18.70;13.67;;;17.80;98.30;;;;;;5107239;23;20462;-82
2021/07/21 03:03:53;;;;;;;19.77;13.40;;;17.80;98.30;;;;;;5106357;23;20407;-82
2021/07/21 03:06:03;;;;;;;20.00;13.80;;;17.80;98.30;;;;;;5105727;23;20450;-82
2021/07/21 03:08:07;;;;;;;18.57;12.93;;;17.80;98.30;;;;;;5106269;23;20437;-82
2021/07/21 03:10:12;;;;;;;18.17;13.43;;;17.80;98.30;;;;;;5099042;23;20432;-82
2021/07/21 03:12:17;;;;;;;23.23;15.50;;;17.80;98.30;;;;;;5106748;23;20419;-82
2021/07/21 03:14:22;;;;;;;17.43;12.70;;;17.80;98.30;;;;;;5103552;23;20426;-82
2021/07/21 03:16:28;;;;;;;17.50;12.27;;;17.80;98.30;;;;;;5102625;23;20463;-82
2021/07/21 03:18:32;;;;;;;17.40;13.00;;;17.80;98.30;;;;;;5102979;23;20431;-82
2021/07/21 03:20:36;;;;;;;18.83;12.80;;;17.80;98.30;;;;;;5103405;23;20430;-82
2021/07/21 03:22:41;;;;;;;20.13;14.00;;;17.70;98.30;;;;;;5103372;23;20427;-82
2021/07/21 03:24:45;;;;;;;15.30;12.50;;;17.70;98.30;;;;;;5101012;23;20482;-82
2021/07/21 03:26:49;;;;;;;18.90;14.20;;;17.70;98.30;;;;;;5101749;23;20451;-82
2021/07/21 03:28:55;;;;;;;18.17;12.77;;;17.70;98.30;;;;;;5102485;23;20430;-82
2021/07/21 03:30:58;;;;;;;19.57;13.10;;;17.70;98.30;;;;;;5094096;23;20411;-82
2021/07/21 03:33:02;;;;;;;21.20;14.30;;;17.60;98.30;;;;;;5094749;23;20433;-82
2021/07/21 03:35:07;;;;;;;26.13;13.77;;;17.70;98.30;;;;;;5094191;23;20435;-82
2021/07/21 03:37:12;;;;;;;16.87;12.37;;;17.70;98.30;;;;;;5095007;23;20826;-82
2021/07/21 03:39:17;;;;;;;21.90;13.23;;;17.70;98.30;;;;;;5094547;23;20446;-82
2021/07/21 03:41:20;;;;;;;18.00;12.87;;;17.70;98.30;;;;;;5103674;23;20404;-83
2021/07/21 03:43:24;;;;;;;17.93;13.33;;;17.70;98.30;;;;;;5095306;23;20431;-83
2021/07/21 03:45:30;;;;;;;17.13;12.63;;;17.70;98.30;;;;;;5103352;23;20442;-82
2021/07/21 03:47:35;;;;;;;22.60;13.97;;;17.70;98.30;;;;;;5095724;23;20455;-82
2021/07/21 03:49:38;;;;;;;17.90;13.33;;;17.70;98.30;;;;;;5103271;23;20942;-85
2021/07/21 03:51:41;;;;;;;19.50;13.13;;;17.60;98.30;;;;;;5103853;23;20423;-82
2021/07/21 03:53:45;;;;;;;19.17;12.83;;;17.70;98.30;;;;;;5102995;23;20510;-82
2021/07/21 03:55:50;;;;;;;16.73;12.30;;;17.70;98.30;;;;;;5103217;23;20477;-83
2021/07/21 03:57:53;;;;;;;21.57;13.50;;;17.70;98.30;;;;;;5102913;23;20475;-83
2021/07/21 03:59:57;;;;;;;21.77;13.90;;;17.70;98.30;;;;;;5102616;23;20458;-82
2021/07/21 04:02:01;;;;;;;17.37;12.57;;;17.70;98.30;;;;;;5101937;23;20521;-82
2021/07/21 04:04:08;;;;;;;17.93;13.43;;;17.70;98.30;;;;;;5103147;23;20703;-82
2021/07/21 04:06:12;;;;;;;19.43;13.33;;;17.60;98.30;;;;;;5103208;23;20525;-82
2021/07/21 04:08:19;;;;;;;24.20;14.23;;;17.60;98.30;;;;;;5094364;23;20442;-82
2021/07/21 04:10:23;;;;;;;17.63;12.70;;;17.70;98.30;;;;;;5103220;23;20431;-82
2021/07/21 04:12:29;;;;;;;18.70;12.03;;;17.70;98.30;;;;;;5102388;23;20446;-81
2021/07/21 04:14:32;;;;;;;21.13;13.67;;;17.70;98.30;;;;;;5094403;23;20475;-82
2021/07/21 04:16:37;;;;;;;17.00;13.00;;;17.70;98.30;;;;;;5096093;23;20526;-82
2021/07/21 04:18:41;;;;;;;17.13;12.07;;;17.70;98.30;;;;;;5102895;23;21086;-82
2021/07/21 04:20:44;;;;;;;19.60;12.40;;;17.80;98.30;;;;;;5103465;23;20427;-82
2021/07/21 04:22:49;;;;;;;18.93;13.07;;;17.80;98.30;;;;;;5095320;23;20431;-82
2021/07/21 04:24:52;;;;;;;19.80;14.77;;;17.80;98.30;;;;;;5103029;23;20430;-82
2021/07/21 04:26:57;;;;;;;21.97;13.40;;;17.80;98.30;;;;;;5104177;23;20961;-82
2021/07/21 04:29:02;;;;;;;17.43;12.90;;;17.80;98.30;;;;;;5096307;23;20427;-82
2021/07/21 04:31:06;;;;;;;21.00;13.50;;;17.70;98.30;;;;;;5096938;23;20415;-82
2021/07/21 04:33:09;;;;;;;19.57;13.90;;;17.70;98.30;;;;;;5097023;23;20437;-82
2021/07/21 04:35:13;;;;;;;22.30;13.70;;;17.70;98.30;;;;;;5104935;23;20530;-82
2021/07/21 04:37:17;;;;;;;21.97;12.83;;;17.70;98.30;;;;;;5105611;23;20439;-82
2021/07/21 04:39:21;;;;;;;20.70;13.50;;;17.70;98.30;;;;;;5095974;23;21015;-83
2021/07/21 04:41:24;;;;;;;18.70;13.10;;;17.70;98.30;;;;;;5096266;23;20748;-82
2021/07/21 04:43:27;;;;;;;18.63;12.97;;;17.70;98.30;;;;;;5104202;23;20937;-82
2021/07/21 04:45:31;;;;;;;21.77;14.33;;;17.80;98.30;;;;;;5099699;23;20427;-82
2021/07/21 04:47:38;;;;;;;20.77;12.47;;;17.70;98.30;;;;;;5107768;23;20450;-82
2021/07/21 04:49:43;;;;;;;18.57;13.00;;;17.80;98.30;;;;;;5115101;23;20502;-82
2021/07/21 04:51:48;;;;;;;20.53;13.83;;;17.80;98.30;;;;;;5108219;23;20467;-82
2021/07/21 04:53:55;;;;;;;18.17;12.77;;;17.80;98.30;;;;;;5115894;23;20607;-82
2021/07/21 04:55:58;;;;;;;22.93;13.30;;;17.90;98.30;;;;;;5115112;23;20494;-82
2021/07/21 04:58:01;;;;;;;17.77;13.40;;;17.90;98.30;;;;;;5108303;23;20819;-82
2021/07/21 05:00:06;;;;;;;18.43;13.47;;;17.90;98.30;;;;;;5104519;23;20502;-82
2021/07/21 05:02:11;;;;;;;18.20;13.37;;;17.90;98.30;;;;;;5104289;23;20426;-82
2021/07/21 05:04:16;;;;;;;17.20;12.30;;;17.90;98.30;;;;;;5096322;23;20411;-82
2021/07/21 05:06:19;;;;;;;19.07;11.67;;;18.00;98.30;;;;;;5104556;23;20450;-82
2021/07/21 05:08:22;;;;;;;23.87;15.30;;;18.00;98.30;;;;;;5096681;23;20445;-82
2021/07/21 05:10:25;;;;;;;19.57;12.17;;;18.00;98.30;;;;;;5096072;23;20518;-82
2021/07/21 05:12:28;;;;;;;19.60;12.23;;;18.00;98.30;;;;;;5095568;23;20459;-82
2021/07/21 05:14:31;;;;;;;23.47;13.47;;;18.00;98.30;;;;;;5103597;23;20968;-82
2021/07/21 05:16:36;;;;;;;21.93;14.10;;;18.00;98.30;;;;;;5096176;23;20447;-82
2021/07/21 05:18:42;;;;;;;20.33;12.80;;;18.00;98.30;;;;;;5095024;23;20431;-82
2021/07/21 05:20:45;;;;;;;21.30;14.00;;;18.00;98.30;;;;;;5103922;23;20866;-82
2021/07/21 05:22:48;;;;;;;18.37;12.93;;;17.90;98.30;;;;;;5095779;23;20453;-82
2021/07/21 05:24:51;;;;;;;20.43;12.70;;;17.80;98.30;;;;;;5103836;23;20828;-82
2021/07/21 05:26:54;;;;;;;19.33;13.23;;;17.80;98.30;;;;;;5102985;23;20506;-82
2021/07/21 05:28:57;;;;;;;20.60;12.90;;;17.80;98.30;;;;;;5095258;23;20437;-82
2021/07/21 05:31:00;;;;;;;21.50;14.63;;;17.70;98.30;;;;;;5103533;23;20436;-82
2021/07/21 05:33:03;;;;;;;16.90;12.50;;;17.80;98.30;;;;;;5103535;23;20434;-82
2021/07/21 05:35:09;;;;;;;17.67;13.00;;;17.80;98.30;;;;;;5103748;23;20425;-83
2021/07/21 05:37:12;;;;;;;16.93;12.47;;;17.80;98.30;;;;;;5095320;23;20451;-82
2021/07/21 05:39:16;;;;;;;17.33;12.33;;;17.80;98.30;;;;;;5094594;23;20427;-82
2021/07/21 05:41:19;;;;;;;18.73;13.00;;;17.80;98.30;;;;;;5103781;23;20505;-82
2021/07/21 05:43:23;;;;;;;19.77;12.70;;;17.90;98.30;;;;;;5103389;23;20459;-82
2021/07/21 05:45:26;;;;;;;20.37;12.97;;;17.90;98.30;;;;;;5095190;23;20461;-81
2021/07/21 05:47:29;;;;;;;21.40;13.47;;;17.90;98.30;;;;;;5095906;23;20990;-82
2021/07/21 05:49:32;;;;;;;17.83;12.60;;;17.90;98.30;;;;;;5103800;23;20514;-82
2021/07/21 05:51:36;;;;;;;20.97;14.63;;;17.90;98.30;;;;;;5097156;23;20438;-82
2021/07/21 05:53:39;;;;;;;18.80;14.20;;;17.90;98.30;;;;;;5104564;23;20904;-82
2021/07/21 05:55:42;;;;;;;22.00;12.10;;;17.90;98.30;;;;;;5096093;23;20455;-82
2021/07/21 05:57:46;;;;;;;20.07;13.40;;;17.90;98.30;;;;;;5096734;23;20423;-82
2021/07/21 05:59:49;;;;;;;19.37;13.43;;;17.90;98.30;;;;;;5103976;23;20523;-83
2021/07/21 06:01:52;;;;;;;23.67;12.70;;;17.90;98.30;;;;;;5103620;23;20521;-82
2021/07/21 06:03:55;;;;;;;19.20;13.20;;;18.00;98.30;;;;;;5102878;23;20939;-82
2021/07/21 06:05:59;;;;;;;17.33;13.10;;;18.10;98.30;;;;;;5102942;23;20494;-82
2021/07/21 06:08:03;;;;;;;21.77;13.13;;;18.10;98.30;;;;;;5095356;23;20863;-82
2021/07/21 06:10:08;;;;;;;20.07;13.20;;;18.10;98.30;;;;;;5102696;23;20430;-81
2021/07/21 06:12:11;;;;;;;15.63;10.87;;;18.10;98.30;;;;;;5094153;23;20459;-83
2021/07/21 06:14:15;;;;;;;17.77;12.40;;;18.20;98.30;;;;;;5103181;23;20427;-83
2021/07/21 06:16:19;;;;;;;16.40;12.80;;;18.20;98.30;;;;;;5095778;23;20534;-82
2021/07/21 06:18:22;;;;;;;17.90;12.13;;;18.30;98.30;;;;;;5104952;23;20446;-84
2021/07/21 06:20:25;;;;;;;17.20;11.80;;;18.40;98.30;;;;;;5102755;23;20744;-84
2021/07/21 06:22:33;;;;;;;16.00;12.33;;;18.30;98.30;;;;;;5103205;23;20415;-84
2021/07/21 06:24:41;;;;;;;15.57;11.63;;;18.20;98.30;;;;;;5094199;23;20450;-84
2021/07/21 06:26:44;;;;;;;18.73;12.90;;;18.20;98.30;;;;;;5097799;23;20474;-84
2021/07/21 06:28:48;;;;;;;18.37;12.03;;;18.30;98.30;;;;;;5105527;23;20419;-84
2021/07/21 06:30:52;;;;;;;16.33;11.60;;;18.40;98.30;;;;;;5105059;23;20952;-85
2021/07/21 06:32:54;;;;;;;15.40;11.83;;;18.40;98.30;;;;;;5105622;23;20423;-85
2021/07/21 06:34:57;;;;;;;17.90;11.63;;;18.50;98.30;;;;;;5105847;23;20433;-85
2021/07/21 06:37:00;;;;;;;19.80;12.33;;;18.60;98.30;;;;;;5105568;23;20442;-85
2021/07/21 06:39:03;;;;;;;16.73;11.70;;;18.70;98.30;;;;;;5105500;23;20476;-85
2021/07/21 06:41:08;;;;;;;18.47;12.17;;;18.70;98.30;;;;;;5106508;23;20433;-84
2021/07/21 06:43:11;;;;;;;15.90;12.57;;;18.80;98.30;;;;;;5097248;23;20454;-84
2021/07/21 06:45:14;;;;;;;16.03;11.53;;;18.80;98.30;;;;;;5096351;23;20459;-84
2021/07/21 06:47:17;;;;;;;13.17;11.67;;;18.80;98.30;;;;;;5104893;23;20455;-85
2021/07/21 06:49:20;;;;;;;14.77;10.63;;;18.90;98.30;;;;;;5105927;23;20430;-86
2021/07/21 06:51:24;;;;;;;18.50;11.30;;;19.00;98.30;;;;;;5106071;23;20525;-85
2021/07/21 06:53:30;;;;;;;14.63;11.90;;;18.90;98.30;;;;;;5104725;23;20426;-84
2021/07/21 06:55:35;;;;;;;16.13;11.67;;;18.90;98.30;;;;;;5104093;23;20437;-81
2021/07/21 06:57:40;;;;;;;18.43;12.50;;;18.90;98.30;;;;;;5095832;23;20450;-82
2021/07/21 06:59:43;;;;;;;17.43;11.10;;;19.10;98.30;;;;;;5095420;23;20458;-82
2021/07/21 07:01:45;;;;;;;17.33;10.90;;;19.20;98.30;;;;;;5095666;23;20521;-82
2021/07/21 07:03:49;;;;;;;15.70;11.10;;;19.30;98.30;;;;;;5103366;23;20426;-83
2021/07/21 07:05:54;;;;;;;16.43;10.70;;;19.40;98.30;;;;;;5094307;23;20537;-83
2021/07/21 07:07:57;;;;;;;15.00;10.90;;;19.40;98.30;;;;;;5103105;23;20439;-82
2021/07/21 07:10:01;;;;;;;13.80;10.80;;;19.40;98.30;;;;;;5095523;23;20431;-82
2021/07/21 07:12:04;;;;;;;13.90;11.00;;;19.40;98.30;;;;;;5095819;23;20506;-82
2021/07/21 07:14:09;;;;;;;16.57;11.57;;;19.30;98.30;;;;;;5095665;23;20430;-82
2021/07/21 07:16:13;;;;;;;15.40;11.60;;;19.30;98.30;;;;;;5096671;23;20451;-82
2021/07/21 07:18:17;;;;;;;14.20;11.17;;;19.40;98.30;;;;;;5095036;23;20445;-82
2021/07/21 07:20:23;;;;;;;14.00;10.70;;;19.50;98.30;;;;;;5103353;23;20498;-81
2021/07/21 07:22:27;;;;;;;13.57;10.10;;;19.30;98.30;;;;;;5103385;23;20505;-82
2021/07/21 07:24:30;;;;;;;14.83;10.93;;;19.40;98.30;;;;;;5095172;23;20427;-81
2021/07/21 07:26:34;;;;;;;18.23;10.80;;;19.40;98.30;;;;;;5103557;23;20449;-82
2021/07/21 07:28:38;;;;;;;12.77;10.57;;;19.40;98.30;;;;;;5103785;23;20457;-82
2021/07/21 07:30:42;;;;;;;15.90;9.93;;;19.30;98.30;;;;;;5103532;23;20457;-82
2021/07/21 07:32:45;;;;;;;15.33;11.77;;;19.20;98.30;;;;;;5095270;23;20513;-82
2021/07/21 07:34:48;;;;;;;17.20;10.20;;;19.20;98.30;;;;;;5103839;23;20489;-82
2021/07/21 07:36:54;;;;;;;13.93;9.70;;;19.10;98.30;;;;;;5103062;23;20447;-82
2021/07/21 07:38:57;;;;;;;12.67;9.77;;;19.10;98.30;;;;;;5103920;23;20474;-82
2021/07/21 07:41:00;;;;;;;15.53;11.50;;;18.90;98.30;;;;;;5103622;23;20450;-82
2021/07/21 07:43:03;;;;;;;13.80;10.20;;;18.90;98.30;;;;;;5103547;23;20435;-82
2021/07/21 07:45:07;;;;;;;14.40;9.90;;;18.80;98.30;;;;;;5103278;23;20415;-82
2021/07/21 07:47:12;;;;;;;14.90;11.30;;;18.70;98.30;;;;;;5095570;23;20848;-82
2021/07/21 07:49:15;;;;;;;17.47;11.70;;;18.60;98.30;;;;;;5095206;23;20474;-82
2021/07/21 07:51:18;;;;;;;14.80;10.93;;;18.50;98.30;;;;;;5103615;23;20454;-82
2021/07/21 07:53:21;;;;;;;15.83;11.20;;;18.40;98.30;;;;;;5094679;23;20538;-81
2021/07/21 07:55:25;;;;;;;17.30;11.07;;;18.30;98.30;;;;;;5094985;23;20510;-83
2021/07/21 07:57:28;;;;;;;12.20;10.20;;;18.30;98.30;;;;;;5095536;23;20454;-83
2021/07/21 07:59:31;;;;;;;13.37;9.87;;;18.20;98.30;;;;;;5095507;23;20984;-80
2021/07/21 08:01:34;;;;;;;13.30;10.27;;;18.10;98.30;;;;;;5096758;23;20431;-81
2021/07/21 08:03:38;;;;;;;15.03;10.10;;;18.10;98.30;;;;;;5099070;23;20530;-81
2021/07/21 08:05:42;;;;;;;13.40;9.77;;;18.20;98.30;;;;;;5107627;23;20422;-81
2021/07/21 08:07:45;;;;;;;16.97;10.63;;;18.30;98.30;;;;;;5096211;23;20761;-81
2021/07/21 08:09:48;;;;;;;13.27;9.60;;;18.30;98.30;;;;;;5096932;23;20785;-80
2021/07/21 08:11:52;;;;;;;11.20;9.20;;;18.50;98.30;;;;;;5105619;23;20477;-81
2021/07/21 08:13:55;;;;;;;12.93;9.20;;;18.60;98.30;;;;;;5098312;23;20584;-81
2021/07/21 08:15:58;;;;;;;11.27;8.97;;;18.70;98.30;;;;;;5105776;23;20423;-82
2021/07/21 08:18:01;;;;;;;14.10;8.30;;;18.70;98.30;;;;;;5094630;23;20438;-81
2021/07/21 08:20:07;;;;;;;12.13;8.80;;;18.70;98.30;;;;;;5094627;23;20800;-82
2021/07/21 08:22:10;;;;;;;13.33;9.20;;;18.80;98.30;;;;;;5102787;23;20407;-82
2021/07/21 08:24:14;;;;;;;14.57;8.87;;;18.90;98.30;;;;;;5102252;23;20448;-82
2021/07/21 08:26:17;;;;;;;11.00;8.50;;;19.10;98.30;;;;;;5094149;23;20450;-81
2021/07/21 08:28:21;;;;;;;14.10;9.50;;;19.20;98.30;;;;;;5102627;23;20471;-82
2021/07/21 08:30:24;;;;;;;11.70;9.37;;;19.20;98.30;;;;;;5103494;23;20427;-82
2021/07/21 08:32:27;;;;;;;10.47;8.80;;;19.30;98.30;;;;;;5094538;23;20802;-82
2021/07/21 08:34:30;;;;;;;13.80;9.40;;;19.30;98.30;;;;;;5093968;23;20431;-82
2021/07/21 08:36:35;;;;;;;12.40;8.87;;;19.30;98.30;;;;;;5094362;23;20542;-83
2021/07/21 08:38:38;;;;;;;11.63;8.80;;;19.40;98.30;;;;;;5102885;23;20437;-84
2021/07/21 08:40:42;;;;;;;10.20;8.17;;;19.30;98.30;;;;;;5104629;23;20419;-83
2021/07/21 08:43:06;;;;;;;12.07;9.20;;;19.30;98.30;;;;;;5095906;23;20547;-83
2021/07/21 08:45:10;;;;;;;11.50;9.20;;;19.30;98.30;;;;;;5095110;23;20412;-83
2021/07/21 08:47:13;;;;;;;9.83;7.80;;;19.30;98.30;;;;;;5094134;23;20459;-83
2021/07/21 08:49:16;;;;;;;10.37;8.73;;;19.40;98.30;;;;;;5102653;23;20454;-84
2021/07/21 08:51:24;;;;;;;10.17;8.67;;;19.50;98.30;;;;;;5096304;23;20900;-83
2021/07/21 08:53:30;;;;;;;13.60;7.97;;;19.50;98.30;;;;;;5095538;23;20484;-83
2021/07/21 08:55:33;;;;;;;12.13;8.53;;;19.50;98.30;;;;;;5095101;23;20441;-84
2021/07/21 08:57:37;;;;;;;10.50;7.70;;;19.50;98.30;;;;;;5102800;23;20443;-83
2021/07/21 08:59:42;;;;;;;11.73;8.40;;;19.70;98.30;;;;;;5095310;23;20427;-84
2021/07/21 09:01:45;;;;;;;10.13;7.97;;;19.70;98.30;;;;;;5096135;23;20487;-83
2021/07/21 09:03:50;;;;;;;9.93;7.70;;;19.80;98.30;;;;;;5095616;23;20798;-84
2021/07/21 09:05:55;;;;;;;10.60;8.40;;;19.90;98.30;;;;;;5103696;23;20439;-83
2021/07/21 09:07:58;;;;;;;10.07;8.10;;;19.90;98.30;;;;;;5103792;23;20904;-83
2021/07/21 09:10:03;;;;;;;11.30;8.40;;;19.80;98.30;;;;;;5102220;23;20450;-83
2021/07/21 09:12:08;;;;;;;11.80;7.70;;;19.80;98.30;;;;;;5095068;23;20427;-83
2021/07/21 09:14:11;;;;;;;9.30;7.70;;;20.00;98.30;;;;;;5102706;23;20434;-84
2021/07/21 09:16:15;;;;;;;8.00;7.20;;;20.30;98.30;;;;;;5093948;23;20462;-84
2021/07/21 09:18:19;;;;;;;8.40;7.40;;;20.50;98.30;;;;;;5093424;23;20522;-83
2021/07/21 09:20:22;;;;;;;9.93;8.40;;;20.40;98.30;;;;;;5102160;23;20411;-83
2021/07/21 09:22:28;;;;;;;8.90;7.37;;;20.30;98.30;;;;;;5093842;23;20486;-83
2021/07/21 09:24:31;;;;;;;9.73;8.50;;;20.30;98.30;;;;;;5102108;23;20527;-83
2021/07/21 09:26:41;;;;;;;11.37;8.97;;;20.40;98.30;;;;;;5102558;23;20497;-83
2021/07/21 09:28:45;;;;;;;11.33;7.60;;;20.40;98.30;;;;;;5102209;23;20399;-83
2021/07/21 09:30:48;;;;;;;9.30;8.07;;;20.20;98.30;;;;;;5093931;23;20430;-83
2021/07/21 09:32:52;;;;;;;8.43;7.53;;;20.00;98.30;;;;;;5103400;23;20442;-83
2021/07/21 09:34:55;;;;;;;10.37;8.53;;;19.70;98.30;;;;;;5095095;23;21007;-83
2021/07/21 09:37:05;;;;;;;11.00;8.90;;;19.40;98.30;;;;;;5095075;23;21026;-83
2021/07/21 09:39:10;;;;;;;11.10;9.20;;;19.20;98.30;;;;;;5102858;23;20413;-83
2021/07/21 09:41:15;;;;;;;11.60;9.10;;;19.10;98.30;;;;;;5103080;23;20408;-83
2021/07/21 09:43:22;;;;;;;12.20;9.90;;;19.00;98.30;;;;;;5098614;23;20431;-83
2021/07/21 09:45:25;;;;;;;11.27;8.63;;;18.90;98.30;;;;;;5099412;23;20461;-83
2021/07/21 09:47:27;;;;;;;13.57;9.60;;;18.80;98.30;;;;;;5102943;23;20462;-83
2021/07/21 09:49:30;;;;;;;10.60;8.30;;;18.70;98.30;;;;;;5104223;23;20447;-83
2021/07/21 09:51:57;;;;;;;10.90;8.70;;;18.60;98.30;;;;;;5097057;23;20415;-83
2021/07/21 09:54:13;;;;;;;12.07;9.97;;;18.30;98.30;;;;;;5104381;23;20495;-83
2021/07/21 09:56:28;;;;;;;12.00;9.07;;;18.20;98.30;;;;;;5096059;23;20450;-83
2021/07/21 10:03:16;;;;;;;12.03;9.20;;;18.10;98.30;;;;;;5092828;23;20536;-84
2021/07/21 10:12:39;;;;;;;10.60;7.60;;;18.60;98.30;;;;;;5065297;23;20427;-84
2021/07/21 10:14:56;;;;;;;12.23;9.23;;;18.90;98.30;;;;;;5061286;23;21350;-85
2021/07/21 10:17:05;;;;;;;12.20;8.90;;;19.00;98.30;;;;;;5099191;23;20430;-84
2021/07/21 10:19:25;;;;;;;10.63;8.50;;;19.10;98.30;;;;;;5100793;23;20428;-84
2021/07/21 10:41:41;;;;;;;11.27;8.40;;;20.50;98.30;;;;;;4873154;23;20409;-84
2021/07/21 10:52:57;;;;;;;10.03;8.20;;;20.70;98.30;;;;;;5016242;23;20995;-84
2021/07/21 10:55:44;;;;;;;11.20;9.00;;;20.70;98.30;;;;;;5000112;23;20521;-84
2021/07/21 11:00:49;;;;;;;13.53;9.30;;;20.80;98.30;;;;;;5028336;23;20426;-83
2021/07/21 11:03:42;;;;;;;9.23;7.83;;;20.70;98.30;;;;;;5025838;23;20815;-83
2021/07/21 11:06:08;;;;;;;9.93;8.43;;;21.10;98.30;;;;;;5024223;23;20513;-83
2021/07/21 11:08:18;;;;;;;10.67;9.40;;;21.40;98.30;;;;;;5016049;23;20501;-86
2021/07/21 11:10:36;;;;;;;9.20;8.30;;;21.20;98.30;;;;;;5025050;23;20433;-87
2021/07/21 11:12:48;;;;;;;11.30;8.63;;;21.00;98.30;;;;;;5079931;23;20453;-87
2021/07/21 11:14:57;;;;;;;13.50;9.63;;;20.90;98.30;;;;;;5099385;23;20777;-88
2021/07/21 11:17:57;;;;;;;;;;;;;;;;;;;;;
2021/07/21 11:24:31;;;;;;;8.90;8.00;;;20.70;98.30;;;;;;4953632;24;20995;-87
2021/07/21 20:46:29;;;;;;;13.43;9.10;;;18.90;98.30;;;;;;4987519;23;20406;-83
2021/07/21 20:49:15;;;;;;;11.60;9.40;;;18.80;98.30;;;;;;4993262;23;20451;-83
2021/07/21 20:54:54;;;;;;;14.30;9.20;;;19.00;98.30;;;;;;4954700;23;20401;-84